Terminal Aerodrome Forecast
Issued by NWS

Home | Current Version | Previous Version | Text Only | Print | Product List | Glossary On
Versions: 1 2 3 4 5 6 7 8 9 10 11 12 13
000
FTUS46 KPDT 311100
TAFDLS
TAF
KDLS 311120Z 3112/0112 30011KT P6SM SCT250
     FM312000 32014G24KT P6SM SCT150 SCT250
     FM010500 31011KT P6SM BKN150=

USA.gov is the U.S. government's official web portal to all federal, state and local government web resources and services.